sensor_id;sensor_type;location;lat;lon;timestamp;P1;durP1;ratioP1;P2;durP2;ratioP2
64252;SDS011;50592;52.958;-7.470;2023-02-15T00:00:11;30.20;;;8.60;;
64252;SDS011;50592;52.958;-7.470;2023-02-15T00:02:38;19.38;;;8.55;;
64252;SDS011;50592;52.958;-7.470;2023-02-15T00:05:04;17.92;;;8.18;;
64252;SDS011;50592;52.958;-7.470;2023-02-15T00:07:30;24.17;;;8.30;;
64252;SDS011;50592;52.958;-7.470;2023-02-15T00:09:56;24.50;;;9.63;;
64252;SDS011;50592;52.958;-7.470;2023-02-15T00:12:22;27.55;;;9.52;;
64252;SDS011;50592;52.958;-7.470;2023-02-15T00:14:48;25.67;;;9.05;;
64252;SDS011;50592;52.958;-7.470;2023-02-15T00:17:13;27.70;;;12.23;;
64252;SDS011;50592;52.958;-7.470;2023-02-15T00:19:39;21.95;;;9.32;;
64252;SDS011;50592;52.958;-7.470;2023-02-15T00:22:05;22.50;;;9.05;;
64252;SDS011;50592;52.958;-7.470;2023-02-15T00:24:31;32.75;;;10.40;;
64252;SDS011;50592;52.958;-7.470;2023-02-15T00:26:58;30.73;;;9.63;;
64252;SDS011;50592;52.958;-7.470;2023-02-15T00:29:24;29.17;;;10.23;;
64252;SDS011;50592;52.958;-7.470;2023-02-15T00:31:50;27.25;;;9.65;;
64252;SDS011;50592;52.958;-7.470;2023-02-15T00:34:18;23.55;;;10.77;;
64252;SDS011;50592;52.958;-7.470;2023-02-15T00:36:47;33.83;;;10.68;;
64252;SDS011;50592;52.958;-7.470;2023-02-15T00:39:14;20.73;;;9.52;;
64252;SDS011;50592;52.958;-7.470;2023-02-15T00:41:41;21.88;;;10.52;;
64252;SDS011;50592;52.958;-7.470;2023-02-15T00:44:07;28.83;;;10.82;;
64252;SDS011;50592;52.958;-7.470;2023-02-15T00:46:33;27.52;;;11.38;;
64252;SDS011;50592;52.958;-7.470;2023-02-15T00:48:59;28.65;;;10.13;;
64252;SDS011;50592;52.958;-7.470;2023-02-15T00:51:26;35.13;;;11.70;;
64252;SDS011;50592;52.958;-7.470;2023-02-15T00:53:52;31.08;;;11.00;;
64252;SDS011;50592;52.958;-7.470;2023-02-15T00:56:18;32.58;;;11.23;;
64252;SDS011;50592;52.958;-7.470;2023-02-15T00:58:44;23.05;;;12.02;;
64252;SDS011;50592;52.958;-7.470;2023-02-15T01:01:11;33.50;;;11.43;;
64252;SDS011;50592;52.958;-7.470;2023-02-15T01:03:39;31.27;;;11.05;;
64252;SDS011;50592;52.958;-7.470;2023-02-15T01:06:08;29.63;;;11.90;;
64252;SDS011;50592;52.958;-7.470;2023-02-15T01:08:35;31.17;;;11.20;;
64252;SDS011;50592;52.958;-7.470;2023-02-15T01:11:06;30.05;;;11.95;;
64252;SDS011;50592;52.958;-7.470;2023-02-15T01:13:34;33.33;;;11.57;;
64252;SDS011;50592;52.958;-7.470;2023-02-15T01:16:00;30.73;;;12.00;;
64252;SDS011;50592;52.958;-7.470;2023-02-15T01:18:26;25.77;;;11.85;;
64252;SDS011;50592;52.958;-7.470;2023-02-15T01:20:52;24.50;;;10.32;;
64252;SDS011;50592;52.958;-7.470;2023-02-15T01:23:18;28.73;;;11.20;;
64252;SDS011;50592;52.958;-7.470;2023-02-15T01:25:45;29.30;;;12.45;;
64252;SDS011;50592;52.958;-7.470;2023-02-15T01:28:11;28.33;;;10.70;;
64252;SDS011;50592;52.958;-7.470;2023-02-15T01:30:38;38.53;;;11.45;;
64252;SDS011;50592;52.958;-7.470;2023-02-15T01:33:04;25.98;;;11.20;;
64252;SDS011;50592;52.958;-7.470;2023-02-15T01:35:30;25.42;;;10.73;;
64252;SDS011;50592;52.958;-7.470;2023-02-15T01:37:56;37.88;;;12.80;;
64252;SDS011;50592;52.958;-7.470;2023-02-15T01:40:22;35.33;;;13.90;;
64252;SDS011;50592;52.958;-7.470;2023-02-15T01:42:52;22.00;;;11.10;;
64252;SDS011;50592;52.958;-7.470;2023-02-15T01:45:24;34.38;;;13.15;;
64252;SDS011;50592;52.958;-7.470;2023-02-15T01:47:58;34.05;;;11.07;;
64252;SDS011;50592;52.958;-7.470;2023-02-15T01:50:45;35.15;;;12.98;;
64252;SDS011;50592;52.958;-7.470;2023-02-15T01:53:17;30.55;;;12.18;;
64252;SDS011;50592;52.958;-7.470;2023-02-15T01:56:02;24.65;;;11.95;;
64252;SDS011;50592;52.958;-7.470;2023-02-15T01:58:34;29.90;;;11.80;;
64252;SDS011;50592;52.958;-7.470;2023-02-15T02:01:01;27.85;;;12.25;;
64252;SDS011;50592;52.958;-7.470;2023-02-15T02:03:42;36.17;;;12.05;;
64252;SDS011;50592;52.958;-7.470;2023-02-15T02:06:14;39.85;;;12.25;;
64252;SDS011;50592;52.958;-7.470;2023-02-15T02:08:41;29.63;;;12.52;;
64252;SDS011;50592;52.958;-7.470;2023-02-15T02:11:12;34.35;;;13.43;;
64252;SDS011;50592;52.958;-7.470;2023-02-15T02:13:40;33.22;;;11.48;;
64252;SDS011;50592;52.958;-7.470;2023-02-15T02:16:22;32.60;;;11.93;;
64252;SDS011;50592;52.958;-7.470;2023-02-15T02:34:59;32.80;;;11.32;;
64252;SDS011;50592;52.958;-7.470;2023-02-15T02:37:45;29.73;;;10.40;;
64252;SDS011;50592;52.958;-7.470;2023-02-15T02:40:25;29.15;;;9.38;;
64252;SDS011;50592;52.958;-7.470;2023-02-15T02:43:20;29.10;;;11.57;;
64252;SDS011;50592;52.958;-7.470;2023-02-15T02:45:57;31.23;;;10.63;;
64252;SDS011;50592;52.958;-7.470;2023-02-15T02:48:29;31.38;;;10.65;;
64252;SDS011;50592;52.958;-7.470;2023-02-15T02:50:58;36.88;;;11.43;;
64252;SDS011;50592;52.958;-7.470;2023-02-15T02:53:23;30.50;;;10.30;;
64252;SDS011;50592;52.958;-7.470;2023-02-15T02:55:51;32.75;;;9.95;;
64252;SDS011;50592;52.958;-7.470;2023-02-15T03:01:06;26.00;;;10.98;;
64252;SDS011;50592;52.958;-7.470;2023-02-15T03:03:38;39.00;;;11.27;;
64252;SDS011;50592;52.958;-7.470;2023-02-15T03:06:09;33.65;;;12.02;;
64252;SDS011;50592;52.958;-7.470;2023-02-15T03:08:44;26.42;;;10.18;;
64252;SDS011;50592;52.958;-7.470;2023-02-15T03:11:16;31.17;;;11.68;;
64252;SDS011;50592;52.958;-7.470;2023-02-15T03:13:42;34.95;;;11.27;;
64252;SDS011;50592;52.958;-7.470;2023-02-15T03:16:10;31.70;;;11.60;;
64252;SDS011;50592;52.958;-7.470;2023-02-15T03:18:52;29.02;;;10.63;;
64252;SDS011;50592;52.958;-7.470;2023-02-15T03:21:39;30.05;;;11.02;;
64252;SDS011;50592;52.958;-7.470;2023-02-15T03:24:19;36.97;;;11.82;;
64252;SDS011;50592;52.958;-7.470;2023-02-15T03:26:49;28.52;;;10.98;;
64252;SDS011;50592;52.958;-7.470;2023-02-15T03:29:17;33.47;;;12.02;;
64252;SDS011;50592;52.958;-7.470;2023-02-15T03:31:49;43.60;;;11.05;;
64252;SDS011;50592;52.958;-7.470;2023-02-15T03:34:20;34.30;;;10.75;;
64252;SDS011;50592;52.958;-7.470;2023-02-15T03:37:10;32.35;;;10.73;;
64252;SDS011;50592;52.958;-7.470;2023-02-15T03:39:49;32.60;;;11.10;;
64252;SDS011;50592;52.958;-7.470;2023-02-15T03:42:30;18.52;;;5.60;;
64252;SDS011;50592;52.958;-7.470;2023-02-15T03:45:03;3.40;;;1.23;;
64252;SDS011;50592;52.958;-7.470;2023-02-15T03:47:36;0.82;;;0.60;;
64252;SDS011;50592;52.958;-7.470;2023-02-15T03:50:07;3.33;;;0.52;;
64252;SDS011;50592;52.958;-7.470;2023-02-15T03:52:57;0.30;;;0.20;;
64252;SDS011;50592;52.958;-7.470;2023-02-15T03:55:25;0.98;;;0.50;;
64252;SDS011;50592;52.958;-7.470;2023-02-15T03:57:51;0.20;;;0.10;;
64252;SDS011;50592;52.958;-7.470;2023-02-15T04:00:37;0.17;;;0.10;;
64252;SDS011;50592;52.958;-7.470;2023-02-15T04:03:38;1.65;;;0.50;;
64252;SDS011;50592;52.958;-7.470;2023-02-15T04:06:07;0.00;;;0.00;;
64252;SDS011;50592;52.958;-7.470;2023-02-15T04:08:33;0.25;;;0.20;;
64252;SDS011;50592;52.958;-7.470;2023-02-15T04:11:19;0.10;;;0.10;;
64252;SDS011;50592;52.958;-7.470;2023-02-15T04:13:45;1.75;;;0.10;;
64252;SDS011;50592;52.958;-7.470;2023-02-15T04:16:11;0.88;;;0.20;;
64252;SDS011;50592;52.958;-7.470;2023-02-15T04:18:38;0.77;;;0.20;;
64252;SDS011;50592;52.958;-7.470;2023-02-15T04:21:26;1.08;;;0.10;;
64252;SDS011;50592;52.958;-7.470;2023-02-15T04:24:11;1.08;;;0.10;;
64252;SDS011;50592;52.958;-7.470;2023-02-15T04:26:58;1.50;;;0.23;;
64252;SDS011;50592;52.958;-7.470;2023-02-15T04:29:24;0.20;;;0.10;;
64252;SDS011;50592;52.958;-7.470;2023-02-15T04:31:52;0.80;;;0.10;;
64252;SDS011;50592;52.958;-7.470;2023-02-15T04:34:20;1.02;;;0.10;;
64252;SDS011;50592;52.958;-7.470;2023-02-15T04:36:46;0.65;;;0.10;;
64252;SDS011;50592;52.958;-7.470;2023-02-15T04:39:13;0.90;;;0.15;;
64252;SDS011;50592;52.958;-7.470;2023-02-15T04:41:40;1.63;;;0.10;;
64252;SDS011;50592;52.958;-7.470;2023-02-15T04:44:06;0.22;;;0.03;;
64252;SDS011;50592;52.958;-7.470;2023-02-15T04:46:31;0.77;;;0.10;;
64252;SDS011;50592;52.958;-7.470;2023-02-15T04:48:57;0.80;;;0.30;;
64252;SDS011;50592;52.958;-7.470;2023-02-15T04:51:23;1.38;;;0.20;;
64252;SDS011;50592;52.958;-7.470;2023-02-15T04:53:49;2.42;;;0.20;;
64252;SDS011;50592;52.958;-7.470;2023-02-15T04:56:18;0.30;;;0.20;;
64252;SDS011;50592;52.958;-7.470;2023-02-15T04:58:44;0.68;;;0.13;;
64252;SDS011;50592;52.958;-7.470;2023-02-15T05:01:10;1.50;;;0.22;;
64252;SDS011;50592;52.958;-7.470;2023-02-15T05:03:36;1.52;;;0.10;;
64252;SDS011;50592;52.958;-7.470;2023-02-15T05:06:02;1.88;;;0.95;;
64252;SDS011;50592;52.958;-7.470;2023-02-15T05:08:29;1.63;;;0.20;;
64252;SDS011;50592;52.958;-7.470;2023-02-15T05:10:55;1.02;;;0.10;;
64252;SDS011;50592;52.958;-7.470;2023-02-15T05:13:22;0.82;;;0.10;;
64252;SDS011;50592;52.958;-7.470;2023-02-15T05:15:48;0.50;;;0.30;;
64252;SDS011;50592;52.958;-7.470;2023-02-15T05:18:15;0.57;;;0.20;;
64252;SDS011;50592;52.958;-7.470;2023-02-15T05:20:42;1.65;;;0.20;;
64252;SDS011;50592;52.958;-7.470;2023-02-15T05:23:08;1.45;;;0.13;;
64252;SDS011;50592;52.958;-7.470;2023-02-15T05:25:34;0.28;;;0.15;;
64252;SDS011;50592;52.958;-7.470;2023-02-15T05:28:18;0.75;;;0.20;;
64252;SDS011;50592;52.958;-7.470;2023-02-15T05:30:48;0.98;;;0.30;;
64252;SDS011;50592;52.958;-7.470;2023-02-15T05:33:34;1.95;;;0.10;;
64252;SDS011;50592;52.958;-7.470;2023-02-15T05:36:01;2.60;;;0.20;;
64252;SDS011;50592;52.958;-7.470;2023-02-15T05:38:28;0.93;;;0.50;;
64252;SDS011;50592;52.958;-7.470;2023-02-15T05:40:54;1.05;;;0.13;;
64252;SDS011;50592;52.958;-7.470;2023-02-15T05:43:20;2.55;;;0.25;;
64252;SDS011;50592;52.958;-7.470;2023-02-15T05:45:47;2.72;;;0.30;;
64252;SDS011;50592;52.958;-7.470;2023-02-15T05:48:14;0.50;;;0.10;;
64252;SDS011;50592;52.958;-7.470;2023-02-15T05:50:40;0.45;;;0.10;;
64252;SDS011;50592;52.958;-7.470;2023-02-15T05:53:06;0.60;;;0.10;;
64252;SDS011;50592;52.958;-7.470;2023-02-15T05:55:31;0.73;;;0.20;;
64252;SDS011;50592;52.958;-7.470;2023-02-15T05:57:57;1.30;;;0.25;;
64252;SDS011;50592;52.958;-7.470;2023-02-15T06:00:23;0.85;;;0.20;;
64252;SDS011;50592;52.958;-7.470;2023-02-15T06:02:50;0.35;;;0.10;;
64252;SDS011;50592;52.958;-7.470;2023-02-15T06:05:16;0.98;;;0.10;;
64252;SDS011;50592;52.958;-7.470;2023-02-15T06:07:43;1.05;;;0.20;;
64252;SDS011;50592;52.958;-7.470;2023-02-15T06:10:10;3.30;;;0.28;;
64252;SDS011;50592;52.958;-7.470;2023-02-15T06:12:36;0.60;;;0.10;;
64252;SDS011;50592;52.958;-7.470;2023-02-15T06:15:02;1.13;;;0.25;;
64252;SDS011;50592;52.958;-7.470;2023-02-15T06:17:28;2.08;;;0.25;;
64252;SDS011;50592;52.958;-7.470;2023-02-15T06:19:54;1.05;;;0.10;;
64252;SDS011;50592;52.958;-7.470;2023-02-15T06:22:20;1.13;;;0.30;;
64252;SDS011;50592;52.958;-7.470;2023-02-15T06:24:46;0.85;;;0.10;;
64252;SDS011;50592;52.958;-7.470;2023-02-15T06:27:12;0.28;;;0.20;;
64252;SDS011;50592;52.958;-7.470;2023-02-15T06:29:39;0.85;;;0.30;;
64252;SDS011;50592;52.958;-7.470;2023-02-15T06:32:05;2.80;;;0.20;;
64252;SDS011;50592;52.958;-7.470;2023-02-15T06:34:31;3.13;;;0.20;;
64252;SDS011;50592;52.958;-7.470;2023-02-15T06:36:56;0.52;;;0.30;;
64252;SDS011;50592;52.958;-7.470;2023-02-15T06:39:22;1.27;;;0.25;;
64252;SDS011;50592;52.958;-7.470;2023-02-15T06:41:48;0.30;;;0.20;;
64252;SDS011;50592;52.958;-7.470;2023-02-15T06:44:13;1.23;;;0.15;;
64252;SDS011;50592;52.958;-7.470;2023-02-15T06:46:39;0.80;;;0.20;;
64252;SDS011;50592;52.958;-7.470;2023-02-15T06:49:05;1.40;;;0.50;;
64252;SDS011;50592;52.958;-7.470;2023-02-15T06:51:31;1.55;;;0.30;;
64252;SDS011;50592;52.958;-7.470;2023-02-15T06:53:56;1.42;;;0.40;;
64252;SDS011;50592;52.958;-7.470;2023-02-15T06:56:22;1.90;;;0.43;;
64252;SDS011;50592;52.958;-7.470;2023-02-15T06:58:48;1.45;;;0.40;;
64252;SDS011;50592;52.958;-7.470;2023-02-15T07:01:14;0.93;;;0.10;;
64252;SDS011;50592;52.958;-7.470;2023-02-15T07:03:41;0.60;;;0.20;;
64252;SDS011;50592;52.958;-7.470;2023-02-15T07:06:07;0.85;;;0.15;;
64252;SDS011;50592;52.958;-7.470;2023-02-15T07:08:37;0.82;;;0.22;;
64252;SDS011;50592;52.958;-7.470;2023-02-15T07:11:04;0.32;;;0.10;;
64252;SDS011;50592;52.958;-7.470;2023-02-15T07:13:50;0.80;;;0.20;;
64252;SDS011;50592;52.958;-7.470;2023-02-15T07:16:17;1.23;;;0.20;;
64252;SDS011;50592;52.958;-7.470;2023-02-15T07:18:44;0.65;;;0.17;;
64252;SDS011;50592;52.958;-7.470;2023-02-15T07:21:10;1.40;;;0.20;;
64252;SDS011;50592;52.958;-7.470;2023-02-15T07:23:36;0.38;;;0.20;;
64252;SDS011;50592;52.958;-7.470;2023-02-15T07:26:03;3.50;;;0.20;;
64252;SDS011;50592;52.958;-7.470;2023-02-15T07:28:30;1.35;;;0.20;;
64252;SDS011;50592;52.958;-7.470;2023-02-15T07:30:57;2.25;;;0.30;;
64252;SDS011;50592;52.958;-7.470;2023-02-15T07:33:23;0.63;;;0.20;;
64252;SDS011;50592;52.958;-7.470;2023-02-15T07:35:50;0.32;;;0.10;;
64252;SDS011;50592;52.958;-7.470;2023-02-15T07:38:17;0.75;;;0.20;;
64252;SDS011;50592;52.958;-7.470;2023-02-15T07:40:44;1.95;;;0.20;;
64252;SDS011;50592;52.958;-7.470;2023-02-15T07:43:10;0.22;;;0.22;;
64252;SDS011;50592;52.958;-7.470;2023-02-15T07:45:36;1.23;;;0.20;;
64252;SDS011;50592;52.958;-7.470;2023-02-15T07:48:03;2.10;;;0.30;;
64252;SDS011;50592;52.958;-7.470;2023-02-15T07:50:29;0.20;;;0.10;;
64252;SDS011;50592;52.958;-7.470;2023-02-15T07:52:55;1.20;;;0.50;;
64252;SDS011;50592;52.958;-7.470;2023-02-15T07:55:21;2.20;;;0.10;;
64252;SDS011;50592;52.958;-7.470;2023-02-15T07:57:47;0.98;;;0.25;;
64252;SDS011;50592;52.958;-7.470;2023-02-15T08:00:15;2.00;;;0.20;;
64252;SDS011;50592;52.958;-7.470;2023-02-15T08:02:47;0.43;;;0.30;;
64252;SDS011;50592;52.958;-7.470;2023-02-15T08:05:14;1.50;;;0.45;;
64252;SDS011;50592;52.958;-7.470;2023-02-15T08:07:42;0.47;;;0.30;;
64252;SDS011;50592;52.958;-7.470;2023-02-15T08:10:07;2.38;;;0.20;;
64252;SDS011;50592;52.958;-7.470;2023-02-15T08:12:33;0.47;;;0.22;;
64252;SDS011;50592;52.958;-7.470;2023-02-15T08:14:59;1.25;;;0.10;;
64252;SDS011;50592;52.958;-7.470;2023-02-15T08:17:25;0.90;;;0.17;;
64252;SDS011;50592;52.958;-7.470;2023-02-15T08:19:51;2.30;;;0.30;;
64252;SDS011;50592;52.958;-7.470;2023-02-15T08:22:16;3.35;;;0.30;;
64252;SDS011;50592;52.958;-7.470;2023-02-15T08:24:42;2.08;;;0.40;;
64252;SDS011;50592;52.958;-7.470;2023-02-15T08:27:09;1.23;;;0.30;;
64252;SDS011;50592;52.958;-7.470;2023-02-15T08:29:36;0.43;;;0.13;;
64252;SDS011;50592;52.958;-7.470;2023-02-15T08:32:05;1.30;;;0.20;;
64252;SDS011;50592;52.958;-7.470;2023-02-15T08:34:33;0.47;;;0.30;;
64252;SDS011;50592;52.958;-7.470;2023-02-15T08:37:01;0.93;;;0.20;;
64252;SDS011;50592;52.958;-7.470;2023-02-15T08:39:27;2.53;;;0.35;;
64252;SDS011;50592;52.958;-7.470;2023-02-15T08:41:54;0.65;;;0.30;;
64252;SDS011;50592;52.958;-7.470;2023-02-15T08:44:19;2.03;;;0.20;;
64252;SDS011;50592;52.958;-7.470;2023-02-15T08:46:46;0.95;;;0.30;;
64252;SDS011;50592;52.958;-7.470;2023-02-15T08:49:15;0.52;;;0.25;;
64252;SDS011;50592;52.958;-7.470;2023-02-15T08:51:45;2.38;;;0.40;;
64252;SDS011;50592;52.958;-7.470;2023-02-15T08:54:12;0.63;;;0.40;;
64252;SDS011;50592;52.958;-7.470;2023-02-15T08:56:41;3.65;;;0.50;;
64252;SDS011;50592;52.958;-7.470;2023-02-15T08:59:12;1.55;;;0.40;;
64252;SDS011;50592;52.958;-7.470;2023-02-15T09:01:40;0.63;;;0.30;;
64252;SDS011;50592;52.958;-7.470;2023-02-15T09:04:07;0.93;;;0.73;;
64252;SDS011;50592;52.958;-7.470;2023-02-15T09:06:37;14.00;;;1.00;;
64252;SDS011;50592;52.958;-7.470;2023-02-15T09:09:04;1.92;;;0.20;;
64252;SDS011;50592;52.958;-7.470;2023-02-15T09:11:33;0.82;;;0.22;;
64252;SDS011;50592;52.958;-7.470;2023-02-15T09:14:02;0.73;;;0.20;;
64252;SDS011;50592;52.958;-7.470;2023-02-15T09:16:31;0.88;;;0.22;;
64252;SDS011;50592;52.958;-7.470;2023-02-15T09:18:59;0.52;;;0.13;;
64252;SDS011;50592;52.958;-7.470;2023-02-15T09:21:26;1.02;;;0.40;;
64252;SDS011;50592;52.958;-7.470;2023-02-15T09:23:57;0.20;;;0.20;;
64252;SDS011;50592;52.958;-7.470;2023-02-15T09:26:25;0.55;;;0.30;;
64252;SDS011;50592;52.958;-7.470;2023-02-15T09:28:54;0.95;;;0.32;;
64252;SDS011;50592;52.958;-7.470;2023-02-15T09:31:22;2.75;;;0.25;;
64252;SDS011;50592;52.958;-7.470;2023-02-15T09:33:50;1.17;;;0.47;;
64252;SDS011;50592;52.958;-7.470;2023-02-15T09:36:17;0.88;;;0.20;;
64252;SDS011;50592;52.958;-7.470;2023-02-15T09:38:45;3.35;;;0.30;;
64252;SDS011;50592;52.958;-7.470;2023-02-15T09:46:47;0.40;;;0.20;;
64252;SDS011;50592;52.958;-7.470;2023-02-15T09:52:33;0.95;;;0.40;;
64252;SDS011;50592;52.958;-7.470;2023-02-15T10:06:36;5.07;;;0.60;;
64252;SDS011;50592;52.958;-7.470;2023-02-15T10:09:39;1.75;;;0.40;;
64252;SDS011;50592;52.958;-7.470;2023-02-15T10:17:47;2.90;;;0.73;;
64252;SDS011;50592;52.958;-7.470;2023-02-15T10:25:56;2.83;;;0.70;;
64252;SDS011;50592;52.958;-7.470;2023-02-15T10:28:31;2.65;;;0.38;;
64252;SDS011;50592;52.958;-7.470;2023-02-15T10:31:15;4.25;;;0.55;;
64252;SDS011;50592;52.958;-7.470;2023-02-15T10:33:48;3.67;;;0.45;;
64252;SDS011;50592;52.958;-7.470;2023-02-15T10:39:14;6.18;;;0.63;;
64252;SDS011;50592;52.958;-7.470;2023-02-15T10:47:24;4.28;;;0.43;;
64252;SDS011;50592;52.958;-7.470;2023-02-15T10:52:33;4.40;;;0.30;;
64252;SDS011;50592;52.958;-7.470;2023-02-15T11:06:17;5.18;;;0.82;;
64252;SDS011;50592;52.958;-7.470;2023-02-15T11:08:50;4.38;;;0.60;;
64252;SDS011;50592;52.958;-7.470;2023-02-15T11:11:23;3.60;;;0.63;;
64252;SDS011;50592;52.958;-7.470;2023-02-15T11:13:56;3.17;;;0.40;;
64252;SDS011;50592;52.958;-7.470;2023-02-15T11:16:28;5.05;;;0.55;;
64252;SDS011;50592;52.958;-7.470;2023-02-15T11:18:58;8.93;;;1.27;;
64252;SDS011;50592;52.958;-7.470;2023-02-15T11:21:33;3.72;;;0.80;;
64252;SDS011;50592;52.958;-7.470;2023-02-15T11:24:14;4.10;;;0.60;;
64252;SDS011;50592;52.958;-7.470;2023-02-15T11:29:40;2.60;;;0.60;;
64252;SDS011;50592;52.958;-7.470;2023-02-15T11:32:54;3.33;;;0.40;;
64252;SDS011;50592;52.958;-7.470;2023-02-15T11:35:18;5.25;;;1.20;;
64252;SDS011;50592;52.958;-7.470;2023-02-15T11:40:49;8.82;;;0.98;;
64252;SDS011;50592;52.958;-7.470;2023-02-15T11:46:03;4.72;;;0.82;;
64252;SDS011;50592;52.958;-7.470;2023-02-15T11:48:30;7.35;;;0.80;;
64252;SDS011;50592;52.958;-7.470;2023-02-15T11:50:57;7.10;;;0.63;;
64252;SDS011;50592;52.958;-7.470;2023-02-15T11:53:32;7.63;;;0.88;;
64252;SDS011;50592;52.958;-7.470;2023-02-15T11:55:59;4.68;;;0.40;;
64252;SDS011;50592;52.958;-7.470;2023-02-15T12:03:55;5.03;;;0.80;;
64252;SDS011;50592;52.958;-7.470;2023-02-15T12:06:26;4.38;;;0.50;;
64252;SDS011;50592;52.958;-7.470;2023-02-15T12:09:02;5.18;;;1.00;;
64252;SDS011;50592;52.958;-7.470;2023-02-15T12:11:36;7.78;;;0.80;;
64252;SDS011;50592;52.958;-7.470;2023-02-15T12:14:04;8.68;;;1.00;;
64252;SDS011;50592;52.958;-7.470;2023-02-15T12:16:46;4.18;;;0.52;;
64252;SDS011;50592;52.958;-7.470;2023-02-15T12:21:55;8.20;;;0.77;;
64252;SDS011;50592;52.958;-7.470;2023-02-15T12:24:44;7.90;;;0.98;;
64252;SDS011;50592;52.958;-7.470;2023-02-15T12:32:27;8.60;;;2.47;;
64252;SDS011;50592;52.958;-7.470;2023-02-15T12:35:06;12.73;;;3.17;;
64252;SDS011;50592;52.958;-7.470;2023-02-15T12:37:39;10.05;;;2.70;;
64252;SDS011;50592;52.958;-7.470;2023-02-15T12:40:20;12.60;;;6.05;;
64252;SDS011;50592;52.958;-7.470;2023-02-15T12:42:48;10.82;;;5.15;;
64252;SDS011;50592;52.958;-7.470;2023-02-15T12:50:52;16.42;;;7.50;;
64252;SDS011;50592;52.958;-7.470;2023-02-15T12:53:34;7.03;;;1.25;;
64252;SDS011;50592;52.958;-7.470;2023-02-15T12:56:02;5.60;;;1.27;;
64252;SDS011;50592;52.958;-7.470;2023-02-15T12:58:30;12.65;;;1.58;;
64252;SDS011;50592;52.958;-7.470;2023-02-15T13:04:00;8.60;;;2.03;;
64252;SDS011;50592;52.958;-7.470;2023-02-15T13:06:30;10.35;;;1.60;;
64252;SDS011;50592;52.958;-7.470;2023-02-15T13:14:49;18.27;;;6.30;;
64252;SDS011;50592;52.958;-7.470;2023-02-15T13:17:17;11.75;;;4.68;;
64252;SDS011;50592;52.958;-7.470;2023-02-15T13:19:52;8.55;;;2.30;;
64252;SDS011;50592;52.958;-7.470;2023-02-15T13:22:22;9.13;;;2.17;;
64252;SDS011;50592;52.958;-7.470;2023-02-15T13:24:57;6.45;;;2.15;;
64252;SDS011;50592;52.958;-7.470;2023-02-15T13:27:28;9.23;;;2.55;;
64252;SDS011;50592;52.958;-7.470;2023-02-15T13:30:02;5.85;;;1.33;;
64252;SDS011;50592;52.958;-7.470;2023-02-15T13:32:39;4.28;;;1.40;;
64252;SDS011;50592;52.958;-7.470;2023-02-15T13:35:15;7.82;;;0.98;;
64252;SDS011;50592;52.958;-7.470;2023-02-15T13:41:14;6.70;;;1.00;;
64252;SDS011;50592;52.958;-7.470;2023-02-15T13:46:21;11.55;;;1.33;;
64252;SDS011;50592;52.958;-7.470;2023-02-15T13:57:26;9.73;;;1.05;;
64252;SDS011;50592;52.958;-7.470;2023-02-15T14:10:44;7.78;;;1.10;;
64252;SDS011;50592;52.958;-7.470;2023-02-15T14:13:28;6.45;;;1.48;;
64252;SDS011;50592;52.958;-7.470;2023-02-15T14:19:04;10.77;;;1.27;;
64252;SDS011;50592;52.958;-7.470;2023-02-15T14:21:34;12.65;;;1.15;;
64252;SDS011;50592;52.958;-7.470;2023-02-15T14:35:04;13.10;;;1.10;;
64252;SDS011;50592;52.958;-7.470;2023-02-15T14:37:44;7.13;;;0.93;;
64252;SDS011;50592;52.958;-7.470;2023-02-15T14:48:39;9.60;;;1.42;;
64252;SDS011;50592;52.958;-7.470;2023-02-15T14:51:10;6.00;;;1.27;;
64252;SDS011;50592;52.958;-7.470;2023-02-15T14:53:56;10.05;;;0.80;;
64252;SDS011;50592;52.958;-7.470;2023-02-15T14:56:22;8.30;;;1.00;;
64252;SDS011;50592;52.958;-7.470;2023-02-15T15:01:24;6.60;;;1.48;;
64252;SDS011;50592;52.958;-7.470;2023-02-15T15:03:51;9.00;;;2.03;;
64252;SDS011;50592;52.958;-7.470;2023-02-15T15:06:29;11.52;;;2.22;;
64252;SDS011;50592;52.958;-7.470;2023-02-15T15:09:39;11.63;;;3.05;;
64252;SDS011;50592;52.958;-7.470;2023-02-15T15:11:53;17.33;;;7.72;;
64252;SDS011;50592;52.958;-7.470;2023-02-15T15:14:38;8.00;;;1.95;;
64252;SDS011;50592;52.958;-7.470;2023-02-15T15:17:08;22.17;;;10.57;;
64252;SDS011;50592;52.958;-7.470;2023-02-15T15:22:22;10.95;;;1.60;;
64252;SDS011;50592;52.958;-7.470;2023-02-15T15:41:17;8.95;;;1.80;;
64252;SDS011;50592;52.958;-7.470;2023-02-15T15:49:20;10.85;;;3.38;;
64252;SDS011;50592;52.958;-7.470;2023-02-15T15:51:49;7.45;;;1.50;;
64252;SDS011;50592;52.958;-7.470;2023-02-15T15:54:19;7.40;;;1.95;;
64252;SDS011;50592;52.958;-7.470;2023-02-15T15:56:48;5.72;;;1.08;;
64252;SDS011;50592;52.958;-7.470;2023-02-15T15:59:31;9.23;;;1.33;;
64252;SDS011;50592;52.958;-7.470;2023-02-15T16:02:05;8.38;;;1.58;;
64252;SDS011;50592;52.958;-7.470;2023-02-15T16:04:33;6.22;;;1.23;;
64252;SDS011;50592;52.958;-7.470;2023-02-15T16:07:19;10.45;;;2.35;;
64252;SDS011;50592;52.958;-7.470;2023-02-15T16:12:22;10.95;;;1.60;;
64252;SDS011;50592;52.958;-7.470;2023-02-15T16:14:48;8.73;;;1.92;;
64252;SDS011;50592;52.958;-7.470;2023-02-15T16:17:24;7.90;;;1.27;;
64252;SDS011;50592;52.958;-7.470;2023-02-15T16:19:52;11.93;;;2.08;;
64252;SDS011;50592;52.958;-7.470;2023-02-15T16:22:26;7.85;;;1.80;;
64252;SDS011;50592;52.958;-7.470;2023-02-15T16:28:05;10.68;;;2.05;;
64252;SDS011;50592;52.958;-7.470;2023-02-15T16:30:33;11.30;;;1.35;;
64252;SDS011;50592;52.958;-7.470;2023-02-15T16:35:40;7.65;;;1.65;;
64252;SDS011;50592;52.958;-7.470;2023-02-15T16:38:19;7.68;;;2.30;;
64252;SDS011;50592;52.958;-7.470;2023-02-15T16:41:04;11.68;;;2.42;;
64252;SDS011;50592;52.958;-7.470;2023-02-15T16:43:30;9.10;;;3.28;;
64252;SDS011;50592;52.958;-7.470;2023-02-15T16:46:08;4.03;;;1.08;;
64252;SDS011;50592;52.958;-7.470;2023-02-15T16:48:39;19.13;;;5.60;;
64252;SDS011;50592;52.958;-7.470;2023-02-15T16:51:08;32.45;;;12.98;;
64252;SDS011;50592;52.958;-7.470;2023-02-15T16:53:34;11.15;;;2.10;;
64252;SDS011;50592;52.958;-7.470;2023-02-15T16:56:02;15.27;;;3.83;;
64252;SDS011;50592;52.958;-7.470;2023-02-15T16:58:31;7.72;;;2.00;;
64252;SDS011;50592;52.958;-7.470;2023-02-15T17:01:11;22.15;;;6.50;;
64252;SDS011;50592;52.958;-7.470;2023-02-15T17:03:40;8.00;;;1.65;;
64252;SDS011;50592;52.958;-7.470;2023-02-15T17:06:18;16.23;;;3.63;;
64252;SDS011;50592;52.958;-7.470;2023-02-15T17:08:50;17.00;;;3.22;;
64252;SDS011;50592;52.958;-7.470;2023-02-15T17:11:21;13.00;;;2.00;;
64252;SDS011;50592;52.958;-7.470;2023-02-15T17:14:20;16.35;;;4.00;;
64252;SDS011;50592;52.958;-7.470;2023-02-15T17:16:53;10.82;;;2.08;;
64252;SDS011;50592;52.958;-7.470;2023-02-15T17:21:59;11.57;;;1.98;;
64252;SDS011;50592;52.958;-7.470;2023-02-15T17:27:06;10.02;;;1.25;;
64252;SDS011;50592;52.958;-7.470;2023-02-15T17:29:40;13.32;;;2.83;;
64252;SDS011;50592;52.958;-7.470;2023-02-15T17:32:30;14.30;;;1.25;;
64252;SDS011;50592;52.958;-7.470;2023-02-15T17:39:59;8.05;;;1.73;;
64252;SDS011;50592;52.958;-7.470;2023-02-15T17:42:30;18.92;;;2.55;;
64252;SDS011;50592;52.958;-7.470;2023-02-15T17:44:56;12.63;;;1.45;;
64252;SDS011;50592;52.958;-7.470;2023-02-15T17:47:22;8.32;;;2.08;;
64252;SDS011;50592;52.958;-7.470;2023-02-15T17:49:51;11.88;;;1.60;;
64252;SDS011;50592;52.958;-7.470;2023-02-15T17:52:17;9.88;;;1.67;;
64252;SDS011;50592;52.958;-7.470;2023-02-15T17:54:44;12.35;;;2.10;;
64252;SDS011;50592;52.958;-7.470;2023-02-15T17:57:28;14.73;;;2.33;;
64252;SDS011;50592;52.958;-7.470;2023-02-15T17:59:55;15.07;;;1.98;;
64252;SDS011;50592;52.958;-7.470;2023-02-15T18:02:40;12.93;;;1.70;;
64252;SDS011;50592;52.958;-7.470;2023-02-15T18:05:25;10.32;;;1.50;;
64252;SDS011;50592;52.958;-7.470;2023-02-15T18:08:18;12.77;;;2.17;;